createdAt,value
2019-02-26T00:02:00.475Z,99.08
2019-02-26T00:04:34.000Z,100.00
2019-02-26T00:07:05.827Z,100.00
2019-02-26T00:09:36.674Z,100.00
2019-02-26T00:12:07.563Z,100.00
2019-02-26T00:14:38.475Z,100.00
2019-02-26T00:17:11.183Z,100.00
2019-02-26T00:19:41.903Z,100.00
2019-02-26T00:22:13.795Z,100.00
2019-02-26T00:24:46.603Z,100.00
2019-02-26T00:27:17.542Z,100.00
2019-02-26T00:29:49.254Z,100.00
2019-02-26T00:32:21.053Z,100.00
2019-02-26T00:34:53.146Z,100.00
2019-02-26T00:37:26.270Z,100.00
2019-02-26T00:39:57.220Z,100.00
2019-02-26T00:42:28.852Z,100.00
2019-02-26T00:45:02.951Z,100.00
2019-02-26T00:47:34.467Z,100.00
2019-02-26T00:50:09.660Z,100.00
2019-02-26T00:52:41.359Z,100.00
2019-02-26T00:55:12.863Z,100.00
2019-02-26T00:57:43.698Z,100.00
2019-02-26T01:00:16.105Z,100.00
2019-02-26T01:02:46.941Z,100.00
2019-02-26T01:05:17.877Z,100.00
2019-02-26T01:07:50.256Z,100.00
2019-02-26T01:10:23.459Z,100.00
2019-02-26T01:12:54.050Z,100.00
2019-02-26T01:15:25.004Z,100.00
2019-02-26T01:17:57.151Z,100.00
2019-02-26T01:20:30.197Z,100.00
2019-02-26T01:23:00.978Z,100.00
2019-02-26T01:25:31.861Z,100.00
2019-02-26T01:28:02.716Z,100.00
2019-02-26T01:30:36.022Z,100.00
2019-02-26T01:33:08.004Z,100.00
2019-02-26T01:35:38.709Z,100.00
2019-02-26T01:38:09.538Z,100.00
2019-02-26T01:40:43.641Z,100.00
2019-02-26T01:43:12.930Z,100.00
2019-02-26T01:45:45.757Z,100.00
2019-02-26T01:48:18.502Z,100.00
2019-02-26T01:50:48.876Z,100.00
2019-02-26T01:53:21.408Z,100.00
2019-02-26T01:55:52.536Z,100.00
2019-02-26T01:58:23.406Z,100.00
2019-02-26T02:00:55.568Z,100.00
2019-02-26T02:03:28.045Z,100.00
2019-02-26T02:05:59.350Z,100.00
2019-02-26T02:08:30.226Z,100.00
2019-02-26T02:11:02.401Z,100.00
2019-02-26T02:13:35.663Z,100.00
2019-02-26T02:16:06.801Z,100.00
2019-02-26T02:18:38.857Z,100.00
2019-02-26T02:21:09.688Z,100.00
2019-02-26T02:23:42.175Z,100.00
2019-02-26T02:26:13.902Z,100.00
2019-02-26T02:28:45.770Z,100.00
2019-02-26T02:31:16.651Z,100.00
2019-02-26T02:33:50.189Z,100.00
2019-02-26T02:36:23.029Z,100.00
2019-02-26T02:38:53.582Z,100.00
2019-02-26T02:41:24.431Z,100.00
2019-02-26T02:43:55.293Z,100.00
2019-02-26T02:46:26.153Z,100.00
2019-02-26T02:48:57.015Z,100.00
2019-02-26T02:51:28.781Z,100.00
2019-02-26T02:54:00.455Z,100.00
2019-02-26T02:56:33.216Z,100.00
2019-02-26T02:59:05.967Z,100.00
2019-02-26T03:01:36.465Z,100.00
2019-02-26T03:04:07.324Z,100.00
2019-02-26T03:06:38.755Z,100.00
2019-02-26T03:09:15.270Z,100.00
2019-02-26T03:11:49.436Z,100.00
2019-02-26T03:14:19.135Z,100.00
2019-02-26T03:16:51.386Z,100.00
2019-02-26T03:19:22.552Z,100.00
2019-02-26T03:21:55.002Z,100.00
2019-02-26T03:24:28.382Z,100.00
2019-02-26T03:26:58.553Z,100.00
2019-02-26T03:29:29.410Z,100.00
2019-02-26T03:32:00.270Z,100.00
2019-02-26T03:34:31.115Z,100.00
2019-02-26T03:37:03.835Z,100.00
2019-02-26T03:39:34.601Z,100.00
2019-02-26T03:42:05.539Z,100.00
2019-02-26T03:44:36.393Z,100.00
2019-02-26T03:47:07.281Z,100.00
2019-02-26T03:49:41.667Z,100.00
2019-02-26T03:52:15.366Z,100.00
2019-02-26T03:54:45.399Z,100.00
2019-02-26T03:57:16.851Z,100.00
2019-02-26T03:59:48.636Z,100.00
2019-02-26T04:02:20.906Z,100.00
2019-02-26T04:04:54.395Z,100.00
2019-02-26T04:07:26.045Z,100.00
2019-02-26T04:09:58.541Z,100.00
2019-02-26T04:12:29.553Z,100.00
2019-02-26T04:15:00.422Z,100.00
2019-02-26T04:17:33.522Z,100.00
2019-02-26T04:20:05.576Z,100.00
2019-02-26T04:22:40.164Z,100.00
2019-02-26T04:25:35.475Z,100.00
2019-02-26T04:28:19.675Z,100.00
2019-02-26T04:30:56.567Z,100.00
2019-02-26T04:34:05.363Z,100.00
2019-02-26T04:36:47.179Z,100.00
2019-02-26T04:39:47.502Z,100.00
2019-02-26T04:42:33.154Z,100.00
2019-02-26T04:45:22.738Z,100.00
2019-02-26T04:48:02.327Z,100.00
2019-02-26T04:50:35.758Z,100.00
2019-02-26T04:53:08.409Z,100.00
2019-02-26T04:55:41.012Z,100.00
2019-02-26T04:58:12.483Z,100.00
2019-02-26T05:00:43.462Z,100.00
2019-02-26T05:03:17.000Z,100.00
2019-02-26T05:05:51.408Z,100.00
2019-02-26T05:08:19.444Z,100.00
2019-02-26T05:10:52.474Z,100.00
2019-02-26T05:13:25.247Z,100.00
2019-02-26T05:15:55.446Z,100.00
2019-02-26T05:18:28.403Z,100.00
2019-02-26T05:20:59.753Z,100.00
2019-02-26T05:23:33.576Z,100.00
2019-02-26T05:26:05.613Z,100.00
2019-02-26T05:28:37.754Z,100.00
2019-02-26T05:31:13.884Z,100.00
2019-02-26T05:33:42.356Z,100.00
2019-02-26T05:36:15.085Z,100.00
2019-02-26T05:38:45.786Z,100.00
2019-02-26T05:41:16.640Z,100.00
2019-02-26T05:43:52.074Z,100.00
2019-02-26T05:46:22.028Z,100.00
2019-02-26T05:48:52.646Z,100.00
2019-02-26T05:51:24.582Z,100.00
2019-02-26T05:53:56.071Z,100.00
2019-02-26T05:56:26.991Z,100.00
2019-02-26T05:59:02.086Z,100.00
2019-02-26T06:01:30.420Z,100.00
2019-02-26T06:04:04.113Z,100.00
2019-02-26T06:06:33.873Z,100.00
2019-02-26T06:09:07.757Z,100.00
2019-02-26T06:11:41.675Z,100.00
2019-02-26T06:14:12.677Z,100.00
2019-02-26T06:16:45.552Z,100.00
2019-02-26T06:19:18.161Z,100.00
2019-02-26T06:21:49.740Z,100.00
2019-02-26T06:24:22.755Z,100.00
2019-02-26T06:26:53.869Z,100.00
2019-02-26T06:29:27.211Z,100.00
2019-02-26T06:32:09.606Z,100.00
2019-02-26T06:34:41.070Z,100.00
2019-02-26T06:37:19.476Z,100.00
2019-02-26T06:39:52.699Z,100.00
2019-02-26T06:42:23.069Z,100.00
2019-02-26T06:44:53.938Z,100.00
2019-02-26T06:47:27.985Z,100.00
2019-02-26T06:49:57.352Z,100.00
2019-02-26T06:52:29.869Z,100.00
2019-02-26T06:55:02.967Z,100.00
2019-02-26T06:57:33.305Z,100.00
2019-02-26T07:00:06.643Z,100.00
2019-02-26T07:02:37.493Z,100.00
2019-02-26T07:05:10.790Z,100.00
2019-02-26T07:07:41.690Z,100.00
2019-02-26T07:10:18.474Z,98.17
2019-02-26T07:12:48.858Z,95.56
2019-02-26T07:15:19.278Z,94.41
2019-02-26T07:17:50.129Z,92.90
2019-02-26T07:20:20.987Z,91.06
2019-02-26T07:22:51.822Z,88.81
2019-02-26T07:25:22.740Z,88.51
2019-02-26T07:27:55.787Z,87.71
2019-02-26T07:33:05.414Z,89.43
2019-02-26T07:35:37.411Z,89.33
2019-02-26T07:38:09.583Z,89.63
2019-02-26T07:40:40.573Z,88.83
2019-02-26T07:43:12.747Z,87.67
2019-02-26T07:45:44.309Z,85.12
2019-02-26T07:48:18.565Z,84.40
2019-02-26T07:50:49.045Z,83.37
2019-02-26T07:53:22.681Z,83.21
2019-02-26T07:55:53.107Z,81.42
2019-02-26T07:58:24.073Z,79.36
2019-02-26T08:00:54.953Z,78.87
2019-02-26T08:03:26.852Z,77.49
2019-02-26T08:05:59.444Z,77.49
2019-02-26T08:08:31.456Z,76.07
2019-02-26T08:11:02.764Z,74.32
2019-02-26T08:13:34.807Z,72.61
2019-02-26T08:16:06.765Z,69.97
2019-02-26T08:18:37.667Z,67.81
2019-02-26T08:21:08.692Z,65.76
2019-02-26T08:23:41.276Z,64.96
2019-02-26T08:26:12.235Z,64.23
2019-02-26T08:28:44.069Z,64.31
2019-02-26T08:31:17.857Z,63.86
2019-02-26T08:33:51.531Z,63.78
2019-02-26T08:36:21.459Z,63.57
2019-02-26T08:38:56.433Z,62.77
2019-02-26T08:41:25.231Z,61.80
2019-02-26T08:43:56.908Z,61.27
2019-02-26T08:46:28.797Z,58.16
2019-02-26T08:49:08.111Z,56.96
2019-02-26T08:51:32.344Z,54.39
2019-02-26T08:54:03.384Z,53.33
2019-02-26T08:56:36.378Z,52.70
2019-02-26T08:59:06.998Z,51.19
2019-02-26T09:01:37.942Z,50.58
2019-02-26T09:04:08.859Z,49.90
2019-02-26T09:06:39.882Z,51.11
2019-02-26T09:09:10.823Z,50.95
2019-02-26T09:11:41.723Z,50.21
2019-02-26T09:14:14.238Z,48.58
2019-02-26T09:16:47.690Z,46.35
2019-02-26T09:19:17.913Z,45.53
2019-02-26T09:21:50.542Z,45.56
2019-02-26T09:24:21.587Z,45.17
2019-02-26T09:26:54.709Z,45.50
2019-02-26T09:29:25.477Z,46.10
2019-02-26T09:31:56.356Z,44.20
2019-02-26T09:34:29.316Z,43.81
2019-02-26T09:37:01.315Z,42.12
2019-02-26T09:39:36.003Z,40.87
2019-02-26T09:42:06.500Z,41.85
2019-02-26T09:44:38.422Z,40.26
2019-02-26T09:47:09.462Z,40.42
2019-02-26T09:49:40.489Z,38.89
2019-02-26T09:52:11.380Z,36.56
2019-02-26T09:54:42.908Z,36.13
2019-02-26T09:57:17.577Z,35.41
2019-02-26T09:59:49.526Z,36.57
2019-02-26T10:02:21.960Z,34.93
2019-02-26T10:04:54.459Z,34.00
2019-02-26T10:07:26.204Z,33.29
2019-02-26T10:10:00.327Z,33.75
2019-02-26T10:12:32.151Z,33.36
2019-02-26T10:15:05.278Z,33.61
2019-02-26T10:17:38.052Z,32.64
2019-02-26T10:20:28.409Z,32.65
2019-02-26T10:23:00.659Z,32.22
2019-02-26T10:25:31.891Z,31.61
2019-02-26T10:28:08.773Z,30.94
2019-02-26T10:30:38.896Z,31.29
2019-02-26T10:33:09.117Z,29.97
2019-02-26T10:35:44.378Z,30.95
2019-02-26T10:38:12.992Z,30.23
2019-02-26T10:40:53.422Z,29.81
2019-02-26T10:43:16.751Z,28.41
2019-02-26T10:45:50.035Z,28.41
2019-02-26T10:48:24.451Z,28.08
2019-02-26T10:50:53.142Z,27.47
2019-02-26T10:53:24.141Z,26.97
2019-02-26T10:55:55.214Z,26.76
2019-02-26T10:58:26.189Z,26.21
2019-02-26T11:00:59.353Z,26.93
2019-02-26T11:03:30.109Z,27.68
2019-02-26T11:06:01.430Z,26.08
2019-02-26T11:08:34.970Z,26.18
2019-02-26T11:11:07.408Z,25.23
2019-02-26T11:13:40.724Z,25.48
2019-02-26T11:16:10.570Z,25.88
2019-02-26T11:18:42.744Z,25.82
2019-02-26T11:21:14.384Z,24.09
2019-02-26T11:23:46.402Z,23.56
2019-02-26T11:26:18.781Z,24.55
2019-02-26T11:28:49.758Z,23.84
2019-02-26T11:31:25.321Z,23.11
2019-02-26T11:33:56.433Z,22.72
2019-02-26T11:36:38.977Z,23.70
2019-02-26T11:39:12.060Z,23.56
2019-02-26T11:41:43.205Z,22.09
2019-02-26T11:44:16.483Z,22.64
2019-02-26T11:46:49.492Z,22.90
2019-02-26T11:49:21.661Z,22.90
2019-02-26T11:51:52.429Z,22.71
2019-02-26T11:54:23.541Z,22.58
2019-02-26T11:56:55.002Z,22.22
2019-02-26T11:59:26.130Z,22.22
2019-02-26T12:01:59.000Z,22.31
2019-02-26T12:04:30.014Z,22.31
2019-02-26T12:07:03.660Z,22.55
2019-02-26T12:09:37.534Z,22.76
2019-02-26T12:12:09.203Z,22.70
2019-02-26T12:14:41.158Z,21.43
2019-02-26T12:17:12.574Z,21.26
2019-02-26T12:19:43.585Z,21.53
2019-02-26T12:22:14.617Z,22.28
2019-02-26T12:24:47.794Z,24.12
2019-02-26T12:27:20.792Z,24.12
2019-02-26T12:29:52.287Z,22.01
2019-02-26T12:32:24.981Z,21.30
2019-02-26T12:34:56.891Z,22.44
2019-02-26T12:37:27.907Z,21.83
2019-02-26T12:39:59.147Z,21.64
2019-02-26T12:42:30.121Z,21.71
2019-02-26T12:45:04.382Z,22.53
2019-02-26T12:47:33.861Z,22.02
2019-02-26T12:50:09.684Z,22.13
2019-02-26T12:52:42.328Z,21.78
2019-02-26T12:55:14.800Z,21.73
2019-02-26T12:57:59.455Z,22.88
2019-02-26T13:00:30.766Z,24.31
2019-02-26T13:03:05.406Z,24.84
2019-02-26T13:05:35.333Z,24.08
2019-02-26T13:08:10.084Z,23.09
2019-02-26T13:10:42.419Z,22.79
2019-02-26T13:13:12.953Z,23.29
2019-02-26T13:15:44.371Z,22.80
2019-02-26T13:18:15.693Z,21.35
2019-02-26T13:20:52.144Z,20.43
2019-02-26T13:23:21.614Z,20.43
2019-02-26T13:25:52.451Z,19.61
2019-02-26T13:28:29.311Z,19.61
2019-02-26T13:31:01.371Z,19.90
2019-02-26T13:33:36.909Z,20.33
2019-02-26T13:36:04.688Z,19.88
2019-02-26T13:38:44.505Z,18.53
2019-02-26T13:41:25.146Z,17.79
2019-02-26T13:43:40.557Z,18.02
2019-02-26T13:46:11.759Z,19.58
2019-02-26T13:48:42.909Z,19.75
2019-02-26T13:51:14.034Z,21.10
2019-02-26T13:53:45.070Z,21.27
2019-02-26T13:56:16.270Z,20.69
2019-02-26T13:58:47.316Z,20.94
2019-02-26T14:01:18.360Z,20.28
2019-02-26T14:03:49.414Z,20.81
2019-02-26T14:06:20.584Z,19.61
2019-02-26T14:08:51.708Z,20.99
2019-02-26T14:11:22.880Z,19.57
2019-02-26T14:13:53.952Z,20.11
2019-02-26T14:16:25.208Z,20.01
2019-02-26T14:18:56.672Z,21.10
2019-02-26T14:21:27.740Z,20.79
2019-02-26T14:23:58.896Z,21.36
2019-02-26T14:29:34.670Z,21.12
2019-02-26T14:32:05.799Z,20.32
2019-02-26T14:34:36.998Z,18.90
2019-02-26T14:37:07.968Z,18.83
2019-02-26T14:39:39.090Z,18.52
2019-02-26T14:42:10.078Z,18.35
2019-02-26T14:44:41.274Z,18.35
2019-02-26T14:47:12.485Z,17.34
2019-02-26T14:49:43.607Z,19.19
2019-02-26T14:52:14.829Z,20.07
2019-02-26T14:54:45.929Z,20.12
2019-02-26T14:57:17.115Z,20.12
2019-02-26T14:59:48.154Z,19.29
2019-02-26T15:02:19.103Z,18.40
2019-02-26T15:04:49.988Z,18.40
2019-02-26T15:07:21.350Z,19.30
2019-02-26T15:09:52.352Z,17.92
2019-02-26T15:12:23.472Z,18.51
2019-02-26T15:14:54.517Z,19.50
2019-02-26T15:17:28.305Z,18.91
2019-02-26T15:19:59.363Z,18.91
2019-02-26T15:22:30.416Z,20.75
2019-02-26T15:25:01.469Z,21.94
2019-02-26T15:27:36.212Z,21.94
2019-02-26T15:30:08.564Z,20.71
2019-02-26T15:32:39.670Z,19.78
2019-02-26T15:35:10.889Z,19.91
2019-02-26T15:37:42.200Z,19.81
2019-02-26T15:40:17.984Z,19.63
2019-02-26T15:42:52.347Z,20.40
2019-02-26T15:45:24.243Z,20.71
2019-02-26T15:47:55.347Z,21.20
2019-02-26T15:50:26.524Z,21.20
2019-02-26T15:52:57.570Z,22.02
2019-02-26T15:55:32.297Z,22.32
2019-02-26T15:58:06.039Z,22.78
2019-02-26T16:00:37.985Z,23.01
2019-02-26T16:03:08.654Z,23.19
2019-02-26T16:05:40.472Z,23.63
2019-02-26T16:08:11.497Z,24.37
2019-02-26T16:10:42.582Z,24.72
2019-02-26T16:13:13.509Z,25.62
2019-02-26T16:15:44.480Z,26.70
2019-02-26T16:18:15.638Z,27.58
2019-02-26T16:20:46.706Z,28.25
2019-02-26T16:23:17.638Z,29.67
2019-02-26T16:25:48.540Z,29.67
2019-02-26T16:28:19.421Z,30.25
2019-02-26T16:30:50.356Z,30.13
2019-02-26T16:33:21.396Z,30.71
2019-02-26T16:35:52.448Z,30.96
2019-02-26T16:38:23.436Z,31.26
2019-02-26T16:40:54.482Z,32.47
2019-02-26T16:43:25.433Z,32.96
2019-02-26T16:45:56.326Z,33.41
2019-02-26T16:48:27.286Z,34.33
2019-02-26T16:50:58.312Z,34.68
2019-02-26T16:53:29.272Z,35.70
2019-02-26T16:56:00.596Z,36.22
2019-02-26T16:58:35.156Z,36.41
2019-02-26T17:01:05.945Z,37.36
2019-02-26T17:03:37.055Z,37.61
2019-02-26T17:06:08.057Z,38.56
2019-02-26T17:08:39.166Z,38.70
2019-02-26T17:11:13.324Z,38.31
2019-02-26T17:13:44.116Z,38.51
2019-02-26T17:16:15.511Z,39.25
2019-02-26T17:18:46.398Z,40.48
2019-02-26T17:21:17.429Z,41.72
2019-02-26T17:23:48.772Z,41.58
2019-02-26T17:26:19.709Z,41.53
2019-02-26T17:28:50.620Z,41.92
2019-02-26T17:31:21.648Z,42.41
2019-02-26T17:33:52.593Z,43.39
2019-02-26T17:36:23.565Z,44.01
2019-02-26T17:38:54.618Z,43.64
2019-02-26T17:41:25.508Z,43.81
2019-02-26T17:43:58.760Z,44.11
2019-02-26T17:46:29.148Z,45.05
2019-02-26T17:49:02.680Z,45.90
2019-02-26T17:51:32.725Z,46.20
2019-02-26T17:54:04.136Z,47.93
2019-02-26T17:56:35.753Z,47.46
2019-02-26T17:59:06.621Z,47.70
2019-02-26T18:01:37.641Z,48.15
2019-02-26T18:04:08.552Z,49.01
2019-02-26T18:06:39.590Z,48.91
2019-02-26T18:09:10.567Z,49.92
2019-02-26T18:11:41.496Z,50.63
2019-02-26T18:14:12.510Z,50.82
2019-02-26T18:16:43.473Z,51.26
2019-02-26T18:19:14.371Z,51.98
2019-02-26T18:21:45.321Z,51.39
2019-02-26T18:24:16.773Z,51.61
2019-02-26T18:26:48.073Z,52.45
2019-02-26T18:29:19.013Z,52.95
2019-02-26T18:31:49.995Z,52.40
2019-02-26T18:34:20.933Z,52.74
2019-02-26T18:36:52.035Z,53.14
2019-02-26T18:39:23.102Z,54.23
2019-02-26T18:41:54.169Z,56.76
2019-02-26T18:44:25.133Z,56.27
2019-02-26T18:46:56.211Z,56.16
2019-02-26T18:49:48.911Z,57.63
2019-02-26T18:52:30.507Z,58.16
2019-02-26T18:55:01.568Z,60.01
2019-02-26T18:57:32.564Z,60.54
2019-02-26T19:00:05.757Z,60.22
2019-02-26T19:02:36.805Z,60.54
2019-02-26T19:05:10.090Z,60.14
2019-02-26T19:07:43.137Z,60.27
2019-02-26T19:10:19.408Z,60.63
2019-02-26T19:12:51.187Z,60.31
2019-02-26T19:15:23.955Z,61.54
2019-02-26T19:17:56.894Z,63.14
2019-02-26T19:20:30.406Z,63.73
2019-02-26T19:23:02.099Z,63.69
2019-02-26T19:25:33.438Z,63.38
2019-02-26T19:28:04.726Z,63.33
2019-02-26T19:30:37.003Z,63.32
2019-02-26T19:33:08.395Z,63.76
2019-02-26T19:35:40.462Z,66.24
2019-02-26T19:38:11.560Z,66.33
2019-02-26T19:40:45.854Z,66.21
2019-02-26T19:43:16.990Z,66.97
2019-02-26T19:45:48.104Z,66.46
2019-02-26T19:48:19.026Z,66.77
2019-02-26T19:50:50.099Z,66.45
2019-02-26T19:53:24.149Z,66.87
2019-02-26T19:55:55.212Z,67.63
2019-02-26T19:58:26.127Z,68.19
2019-02-26T20:00:57.186Z,68.53
2019-02-26T20:03:39.285Z,68.10
2019-02-26T20:06:00.881Z,67.52
2019-02-26T20:08:32.265Z,67.29
2019-02-26T20:11:03.290Z,67.53
2019-02-26T20:13:34.661Z,68.79
2019-02-26T20:16:05.628Z,69.33
2019-02-26T20:18:36.524Z,70.16
2019-02-26T20:21:07.645Z,70.78
2019-02-26T20:23:41.856Z,70.97
2019-02-26T20:26:16.203Z,71.11
2019-02-26T20:28:44.297Z,70.86
2019-02-26T20:31:15.314Z,71.54
2019-02-26T20:33:46.437Z,70.93
2019-02-26T20:36:17.845Z,72.07
2019-02-26T20:38:49.335Z,73.25
2019-02-26T20:41:22.258Z,74.08
2019-02-26T20:43:53.482Z,73.89
2019-02-26T20:46:25.136Z,74.89
2019-02-26T20:48:56.973Z,73.81
2019-02-26T20:51:27.934Z,73.76
2019-02-26T20:53:58.922Z,75.22
2019-02-26T20:56:31.019Z,75.32
2019-02-26T20:59:02.537Z,74.46
2019-02-26T21:01:33.471Z,74.66
2019-02-26T21:04:04.496Z,74.74
2019-02-26T21:06:35.691Z,74.56
2019-02-26T21:09:07.680Z,74.94
2019-02-26T21:11:39.074Z,75.38
2019-02-26T21:14:10.260Z,75.38
2019-02-26T21:16:41.192Z,75.79
2019-02-26T21:19:12.891Z,75.99
2019-02-26T21:21:44.240Z,76.14
2019-02-26T21:24:15.238Z,76.46
2019-02-26T21:26:46.213Z,76.38
2019-02-26T21:29:17.179Z,76.28
2019-02-26T21:31:49.710Z,75.93
2019-02-26T21:34:21.647Z,75.27
2019-02-26T21:36:52.747Z,75.02
2019-02-26T21:39:23.661Z,75.71
2019-02-26T21:41:56.686Z,75.32
2019-02-26T21:44:27.992Z,74.41
2019-02-26T21:46:59.380Z,74.17
2019-02-26T21:49:30.325Z,74.28
2019-02-26T21:52:01.373Z,73.79
2019-02-26T21:54:32.509Z,73.26
2019-02-26T21:57:03.806Z,72.76
2019-02-26T21:59:34.877Z,72.37
2019-02-26T22:02:06.051Z,72.26
2019-02-26T22:04:37.018Z,72.38
2019-02-26T22:07:07.879Z,72.91
2019-02-26T22:09:38.815Z,72.30
2019-02-26T22:12:09.799Z,73.42
2019-02-26T22:14:40.676Z,73.87
2019-02-26T22:17:11.671Z,75.14
2019-02-26T22:19:42.592Z,74.99
2019-02-26T22:22:13.505Z,74.30
2019-02-26T22:24:46.112Z,74.19
2019-02-26T22:27:17.109Z,74.46
2019-02-26T22:29:48.730Z,74.22
2019-02-26T22:32:19.835Z,74.67
2019-02-26T22:34:53.587Z,74.87
2019-02-26T22:37:23.590Z,75.76
2019-02-26T22:39:55.894Z,74.82
2019-02-26T22:42:27.386Z,73.91
2019-02-26T22:44:58.289Z,73.82
2019-02-26T22:47:29.229Z,73.08
2019-02-26T22:50:00.153Z,72.75
2019-02-26T22:52:31.351Z,72.44
2019-02-26T22:55:02.270Z,72.06
2019-02-26T22:57:33.220Z,71.58
2019-02-26T23:00:05.895Z,71.44
2019-02-26T23:02:40.638Z,71.20
2019-02-26T23:05:09.755Z,71.12
2019-02-26T23:07:40.721Z,71.20
2019-02-26T23:10:12.050Z,71.91
2019-02-26T23:12:43.164Z,71.51
2019-02-26T23:15:14.179Z,71.52
2019-02-26T23:17:46.429Z,71.76
2019-02-26T23:20:17.737Z,72.12
2019-02-26T23:22:49.271Z,72.28
2019-02-26T23:25:20.506Z,72.31
2019-02-26T23:27:51.560Z,72.26
2019-02-26T23:30:24.950Z,72.25
2019-02-26T23:32:55.307Z,72.07
2019-02-26T23:35:26.302Z,71.95
2019-02-26T23:37:57.572Z,72.18
2019-02-26T23:40:28.582Z,72.28
2019-02-26T23:42:59.570Z,72.62
2019-02-26T23:45:30.756Z,72.79
2019-02-26T23:48:01.778Z,72.80
2019-02-26T23:50:32.770Z,73.25
2019-02-26T23:53:03.718Z,73.31
2019-02-26T23:55:34.606Z,72.99
2019-02-26T23:58:05.580Z,73.46
